Time;durP1;ratioP1;P1;durP2;ratioP2;P2;SDS_P1;SDS_P2;PMS_P1;PMS_P2;Temp;Humidity;BMP_temperature;BMP_pressure;BME280_temperature;BME280_humidity;BME280_pressure;Samples;Min_cycle;Max_cycle;Signal;HPM_P1;HPM_P2
2023/03/25 00:00:20;;;;;;;7.00;0.70;;;9.80;67.70;;;;;;5073654;28;20041;-65
2023/03/25 00:02:49;;;;;;;6.57;0.65;;;9.90;70.60;;;;;;5073586;28;20396;-65
2023/03/25 00:05:17;;;;;;;1.88;0.95;;;9.80;72.50;;;;;;5073279;28;20520;-65
2023/03/25 00:07:44;;;;;;;3.50;0.77;;;9.80;75.60;;;;;;5073535;28;20392;-66
2023/03/25 00:10:12;;;;;;;2.78;0.75;;;9.80;77.40;;;;;;5073545;28;20119;-65
2023/03/25 00:12:38;;;;;;;3.97;0.60;;;9.70;76.20;;;;;;5073148;28;20102;-65
2023/03/25 00:15:05;;;;;;;0.93;0.60;;;9.70;77.60;;;;;;5071900;28;20040;-65
2023/03/25 00:17:32;;;;;;;1.98;1.08;;;9.70;82.60;;;;;;5055557;28;20500;-65
2023/03/25 00:20:01;;;;;;;2.17;0.68;;;9.80;72.20;;;;;;5073311;28;20123;-65
2023/03/25 00:22:26;;;;;;;5.20;1.30;;;9.70;77.60;;;;;;5073190;28;20071;-64
2023/03/25 00:24:52;;;;;;;1.23;0.70;;;9.70;78.00;;;;;;5073280;28;20068;-65
2023/03/25 00:27:18;;;;;;;5.03;0.88;;;9.70;87.20;;;;;;5073298;28;20036;-65
2023/03/25 00:29:45;;;;;;;4.40;1.20;;;9.60;93.90;;;;;;5073266;28;20036;-65
2023/03/25 00:32:12;;;;;;;3.65;1.10;;;9.60;92.90;;;;;;5072876;28;20036;-65
2023/03/25 00:34:40;;;;;;;2.35;0.65;;;9.70;87.80;;;;;;5072788;28;20045;-65
2023/03/25 00:37:09;;;;;;;5.28;0.98;;;9.70;84.80;;;;;;5073128;28;20037;-64
2023/03/25 00:39:38;;;;;;;4.60;1.10;;;9.70;77.30;;;;;;5072865;28;20040;-65
2023/03/25 00:42:04;;;;;;;2.53;0.90;;;9.70;80.40;;;;;;5072828;28;20040;-65
2023/03/25 00:44:31;;;;;;;2.38;0.65;;;9.70;73.00;;;;;;5072728;28;20051;-64
2023/03/25 00:46:56;;;;;;;2.28;0.93;;;9.70;75.00;;;;;;5054950;28;20089;-65
2023/03/25 00:49:23;;;;;;;3.60;0.63;;;9.80;64.80;;;;;;5054843;28;20040;-65
2023/03/25 00:51:50;;;;;;;4.80;1.50;;;9.80;61.10;;;;;;5072951;28;20043;-66
2023/03/25 00:54:17;;;;;;;3.50;0.75;;;9.80;64.90;;;;;;5072872;28;20161;-65
2023/03/25 00:56:43;;;;;;;2.00;1.05;;;10.40;81.20;;;;;;5072615;28;20037;-66
2023/03/25 00:59:09;;;;;;;2.05;0.98;;;10.70;99.90;;;;;;5072881;28;20040;-66
2023/03/25 01:01:38;;;;;;;4.60;1.10;;;9.50;99.90;;;;;;5072923;28;20077;-66
2023/03/25 01:04:10;;;;;;;4.03;0.60;;;9.40;99.90;;;;;;5072518;28;20037;-66
2023/03/25 01:06:40;;;;;;;4.25;1.00;;;9.30;99.90;;;;;;5054671;28;20158;-66
2023/03/25 01:09:07;;;;;;;4.38;0.63;;;9.20;99.90;;;;;;5072856;28;20043;-65
2023/03/25 01:11:36;;;;;;;2.38;0.82;;;9.10;99.90;;;;;;5054599;28;20055;-66
2023/03/25 01:14:04;;;;;;;3.88;1.00;;;9.10;99.90;;;;;;5072356;28;20055;-66
2023/03/25 01:16:31;;;;;;;1.17;0.75;;;9.00;99.90;;;;;;5072436;28;20450;-66
2023/03/25 01:18:56;;;;;;;3.33;1.02;;;8.90;99.90;;;;;;5072486;28;20036;-66
2023/03/25 01:21:22;;;;;;;8.38;1.40;;;8.80;99.90;;;;;;5071172;28;20032;-66
2023/03/25 01:23:48;;;;;;;5.57;0.80;;;8.80;99.90;;;;;;5037836;28;20124;-67
2023/03/25 01:26:14;;;;;;;2.35;1.42;;;8.70;99.90;;;;;;5072632;28;20040;-67
2023/03/25 01:28:42;;;;;;;2.13;0.90;;;8.70;99.90;;;;;;5072576;28;20472;-67
2023/03/25 01:31:09;;;;;;;3.33;1.15;;;8.60;99.90;;;;;;5072403;28;20404;-67
2023/03/25 01:33:35;;;;;;;1.80;0.80;;;8.60;99.90;;;;;;5054649;28;20040;-67
2023/03/25 01:36:01;;;;;;;2.50;0.80;;;8.50;99.90;;;;;;5076376;28;20059;-67
2023/03/25 01:38:28;;;;;;;1.15;0.63;;;8.40;99.90;;;;;;5076127;28;20047;-67
2023/03/25 01:40:54;;;;;;;6.45;1.15;;;8.50;99.90;;;;;;5076339;28;20373;-67
2023/03/25 01:43:20;;;;;;;2.67;1.13;;;8.40;99.90;;;;;;5076286;28;20036;-67
2023/03/25 01:45:46;;;;;;;6.63;0.90;;;8.40;99.90;;;;;;5076287;28;20066;-68
2023/03/25 01:48:21;;;;;;;1.35;1.00;;;8.40;99.90;;;;;;5076193;28;20041;-68
2023/03/25 01:51:01;;;;;;;3.03;0.80;;;8.40;99.90;;;;;;5076150;28;20458;-67
2023/03/25 01:53:31;;;;;;;7.50;1.33;;;8.40;99.90;;;;;;5076107;28;20051;-67
2023/03/25 01:56:01;;;;;;;2.50;1.00;;;8.40;99.90;;;;;;5075952;28;20131;-67
2023/03/25 01:58:28;;;;;;;3.38;0.95;;;8.40;99.90;;;;;;5076068;28;20235;-67
2023/03/25 02:00:54;;;;;;;2.42;0.73;;;8.40;99.90;;;;;;5058020;28;20055;-67
2023/03/25 02:03:22;;;;;;;4.47;0.70;;;8.30;99.90;;;;;;5075688;28;20041;-67
2023/03/25 02:06:04;;;;;;;3.03;0.73;;;8.40;99.90;;;;;;5075562;28;20099;-67
2023/03/25 02:08:37;;;;;;;5.18;0.88;;;8.40;99.90;;;;;;5075501;28;20051;-67
2023/03/25 02:11:07;;;;;;;5.35;1.75;;;8.40;99.90;;;;;;5057980;28;20446;-67
2023/03/25 02:13:35;;;;;;;5.05;0.90;;;8.40;99.90;;;;;;5057644;28;20110;-67
2023/03/25 02:16:22;;;;;;;2.80;0.65;;;8.40;99.90;;;;;;5075639;28;20044;-67
2023/03/25 02:19:20;;;;;;;5.45;1.08;;;8.50;99.90;;;;;;5075695;28;20124;-67
2023/03/25 02:22:16;;;;;;;3.33;0.77;;;8.50;99.90;;;;;;5075439;28;20461;-67
2023/03/25 02:25:14;;;;;;;2.55;1.45;;;8.40;99.90;;;;;;5075557;28;20044;-67
2023/03/25 02:28:03;;;;;;;5.07;1.00;;;8.50;99.90;;;;;;5048403;28;20106;-67
2023/03/25 02:30:40;;;;;;;1.40;1.02;;;8.50;99.90;;;;;;5057207;28;20050;-66
2023/03/25 02:33:32;;;;;;;1.27;0.93;;;8.50;99.90;;;;;;5075097;28;20048;-67
2023/03/25 02:36:29;;;;;;;2.03;1.00;;;8.50;99.90;;;;;;5075255;28;20076;-67
2023/03/25 02:39:09;;;;;;;4.95;1.30;;;8.50;99.90;;;;;;5075037;28;20119;-67
2023/03/25 02:42:05;;;;;;;4.60;1.20;;;8.50;99.90;;;;;;5075307;28;20480;-67
2023/03/25 02:44:40;;;;;;;3.03;1.38;;;8.50;99.90;;;;;;5075072;28;20041;-67
2023/03/25 02:47:15;;;;;;;4.97;1.80;;;8.50;99.90;;;;;;5073910;28;20044;-67
2023/03/25 02:49:57;;;;;;;3.13;1.58;;;8.50;99.90;;;;;;5075046;28;20043;-67
2023/03/25 02:52:42;;;;;;;7.10;1.42;;;8.40;99.90;;;;;;5075043;28;20480;-67
2023/03/25 02:55:11;;;;;;;5.93;1.65;;;8.50;99.90;;;;;;5074654;28;20102;-67
2023/03/25 02:57:44;;;;;;;5.03;1.20;;;8.50;99.90;;;;;;5056974;28;20041;-66
2023/03/25 03:00:14;;;;;;;15.20;2.13;;;8.40;99.90;;;;;;5073407;28;20052;-67
2023/03/25 03:03:01;;;;;;;4.10;0.95;;;8.50;99.90;;;;;;5070541;22;20098;-64
2023/03/25 03:05:38;;;;;;;3.05;1.30;;;8.40;99.90;;;;;;5073074;28;20071;-64
2023/03/25 03:08:33;;;;;;;5.15;1.67;;;8.40;99.90;;;;;;5074693;28;20533;-64
2023/03/25 03:11:29;;;;;;;10.50;1.67;;;8.40;99.90;;;;;;5059909;28;20074;-64
2023/03/25 03:14:13;;;;;;;3.88;1.13;;;8.40;99.90;;;;;;5073067;28;20075;-63
2023/03/25 03:16:41;;;;;;;4.18;1.58;;;8.40;99.90;;;;;;5072970;28;20055;-64
2023/03/25 03:19:20;;;;;;;5.07;1.52;;;9.60;99.90;;;;;;5073036;28;20072;-63
2023/03/25 03:21:52;;;;;;;6.47;1.17;;;8.40;99.90;;;;;;5074158;28;20052;-64
2023/03/25 03:24:59;;;;;;;5.43;1.75;;;8.30;99.90;;;;;;5074427;28;20052;-64
2023/03/25 03:27:35;;;;;;;3.40;1.15;;;8.30;99.90;;;;;;5073090;28;20040;-63
2023/03/25 03:30:16;;;;;;;7.03;1.25;;;8.30;99.90;;;;;;5074254;28;20048;-64
2023/03/25 03:33:08;;;;;;;2.00;0.98;;;8.30;99.90;;;;;;5072801;28;20404;-64
2023/03/25 03:35:40;;;;;;;3.53;0.95;;;8.30;99.90;;;;;;5045507;28;20508;-63
2023/03/25 03:38:11;;;;;;;3.85;1.83;;;8.30;99.90;;;;;;5072653;28;20063;-63
2023/03/25 03:40:41;;;;;;;2.78;1.00;;;8.30;99.90;;;;;;5074070;28;20071;-64
2023/03/25 03:43:15;;;;;;;4.30;1.23;;;9.00;99.90;;;;;;5072768;28;20036;-64
2023/03/25 03:45:47;;;;;;;6.28;1.30;;;8.30;99.90;;;;;;5073995;28;20428;-64
2023/03/25 03:48:20;;;;;;;6.85;1.30;;;8.30;99.90;;;;;;5072387;28;20047;-63
2023/03/25 03:50:52;;;;;;;5.57;1.20;;;8.20;99.90;;;;;;5072381;28;20115;-64
2023/03/25 03:53:33;;;;;;;6.45;1.67;;;9.10;99.90;;;;;;5073878;28;20044;-64
2023/03/25 03:56:24;;;;;;;2.38;1.27;;;8.30;99.90;;;;;;5072223;28;20400;-63
2023/03/25 03:58:53;;;;;;;5.38;1.10;;;8.30;99.90;;;;;;5073370;28;20141;-64
2023/03/25 04:01:29;;;;;;;4.13;1.23;;;8.30;99.90;;;;;;5073695;28;20037;-63
2023/03/25 04:04:06;;;;;;;1.83;0.80;;;8.30;99.90;;;;;;5073232;28;20458;-64
2023/03/25 04:06:34;;;;;;;3.17;1.08;;;8.70;99.90;;;;;;5072342;28;20048;-64
2023/03/25 04:09:09;;;;;;;3.13;1.00;;;8.30;99.90;;;;;;5073222;28;20037;-63
2023/03/25 04:11:53;;;;;;;8.82;1.50;;;8.30;99.90;;;;;;5073579;28;20040;-66
2023/03/25 04:14:20;;;;;;;2.65;0.98;;;8.20;99.90;;;;;;5073365;28;20040;-64
2023/03/25 04:16:46;;;;;;;2.92;1.10;;;8.20;99.90;;;;;;5073170;28;20045;-63
2023/03/25 04:19:12;;;;;;;2.38;1.17;;;8.20;99.90;;;;;;5073207;28;20396;-63
2023/03/25 04:21:38;;;;;;;4.68;1.27;;;8.20;99.90;;;;;;5055142;28;20072;-63
2023/03/25 04:24:07;;;;;;;3.63;1.35;;;8.20;99.90;;;;;;5073073;28;20577;-63
2023/03/25 04:26:36;;;;;;;5.43;1.50;;;8.20;99.90;;;;;;5073068;28;20109;-63
2023/03/25 04:29:03;;;;;;;5.35;1.98;;;8.20;99.90;;;;;;5073279;28;20036;-63
2023/03/25 04:31:30;;;;;;;5.95;1.83;;;8.20;99.90;;;;;;5073201;28;20032;-63
2023/03/25 04:33:57;;;;;;;4.28;1.30;;;8.20;99.90;;;;;;5073250;28;20028;-63
2023/03/25 04:36:32;;;;;;;4.75;1.35;;;8.20;99.90;;;;;;5073146;28;20040;-64
2023/03/25 04:38:58;;;;;;;3.88;1.55;;;8.20;99.90;;;;;;5073146;28;20048;-63
2023/03/25 04:41:24;;;;;;;2.75;1.40;;;8.20;99.90;;;;;;5071627;28;20044;-63
2023/03/25 04:43:50;;;;;;;6.05;1.67;;;8.20;99.90;;;;;;5071854;28;20392;-63
2023/03/25 04:46:17;;;;;;;5.47;1.38;;;8.20;99.90;;;;;;5072835;28;20491;-64
2023/03/25 04:48:44;;;;;;;6.68;2.30;;;8.20;99.90;;;;;;5071502;28;20416;-64
2023/03/25 04:51:14;;;;;;;3.05;1.20;;;8.20;99.90;;;;;;5072760;28;20047;-63
2023/03/25 04:53:40;;;;;;;8.07;1.30;;;8.20;99.90;;;;;;5072980;28;20037;-63
2023/03/25 04:56:14;;;;;;;4.45;1.60;;;8.20;99.90;;;;;;5072909;28;20032;-63
2023/03/25 04:58:41;;;;;;;6.10;1.15;;;8.20;99.90;;;;;;5071386;28;20178;-63
2023/03/25 05:01:10;;;;;;;4.90;1.48;;;8.20;99.90;;;;;;5072626;28;20048;-63
2023/03/25 05:03:38;;;;;;;4.95;1.67;;;8.20;99.90;;;;;;5072543;28;20055;-63
2023/03/25 05:06:06;;;;;;;5.18;1.13;;;8.20;99.90;;;;;;5071311;28;20059;-63
2023/03/25 05:08:32;;;;;;;8.13;1.38;;;8.10;99.90;;;;;;5072839;28;20582;-62
2023/03/25 05:10:58;;;;;;;4.65;1.55;;;8.10;99.90;;;;;;5076709;28;20075;-62
2023/03/25 05:13:23;;;;;;;5.60;2.13;;;8.10;99.90;;;;;;5076620;28;20396;-62
2023/03/25 05:15:49;;;;;;;5.70;1.58;;;8.10;99.90;;;;;;5076517;28;20032;-63
2023/03/25 05:18:16;;;;;;;3.88;1.95;;;8.10;99.90;;;;;;5076802;28;20045;-64
2023/03/25 05:20:43;;;;;;;6.60;1.67;;;8.10;99.90;;;;;;5076425;28;20094;-62
2023/03/25 05:23:16;;;;;;;6.05;2.08;;;8.00;99.90;;;;;;5076740;28;20035;-62
2023/03/25 05:25:43;;;;;;;4.70;1.77;;;8.10;99.90;;;;;;5076667;28;20041;-62
2023/03/25 05:28:12;;;;;;;4.03;1.67;;;8.10;99.90;;;;;;5058657;28;20047;-62
2023/03/25 05:30:42;;;;;;;4.55;1.63;;;8.10;99.90;;;;;;5074964;28;20499;-62
2023/03/25 05:33:14;;;;;;;8.45;1.98;;;8.10;99.90;;;;;;5076506;28;20036;-62
2023/03/25 05:35:40;;;;;;;8.80;1.85;;;8.10;99.90;;;;;;5076099;28;20044;-63
2023/03/25 05:38:07;;;;;;;3.20;1.17;;;8.10;99.90;;;;;;5076243;28;20039;-62
2023/03/25 05:40:33;;;;;;;5.13;1.42;;;8.10;99.90;;;;;;5076440;28;20040;-63
2023/03/25 05:42:59;;;;;;;10.77;1.83;;;8.10;99.90;;;;;;5075076;28;20112;-62
2023/03/25 05:45:25;;;;;;;4.18;1.65;;;8.10;99.90;;;;;;5075979;28;20128;-63
2023/03/25 05:47:51;;;;;;;3.55;1.83;;;8.20;99.90;;;;;;5076220;28;20132;-62
2023/03/25 05:50:17;;;;;;;8.98;1.60;;;8.20;99.90;;;;;;5076159;28;20380;-62
2023/03/25 05:52:43;;;;;;;9.13;1.48;;;8.20;99.90;;;;;;5075858;28;20036;-62
2023/03/25 05:55:16;;;;;;;4.22;1.60;;;8.20;99.90;;;;;;5076042;28;20033;-62
2023/03/25 05:57:42;;;;;;;7.35;1.52;;;8.20;99.90;;;;;;5076089;28;20037;-62
2023/03/25 06:00:11;;;;;;;3.97;1.73;;;8.20;99.90;;;;;;5075998;28;20055;-62
2023/03/25 06:02:38;;;;;;;5.65;2.05;;;8.20;99.90;;;;;;5074562;28;20044;-62
2023/03/25 06:05:08;;;;;;;9.10;1.90;;;8.20;99.90;;;;;;5075920;28;20052;-62
2023/03/25 06:07:36;;;;;;;2.60;1.38;;;8.20;99.90;;;;;;5075906;28;20442;-62
2023/03/25 06:10:03;;;;;;;2.65;1.27;;;8.20;99.90;;;;;;5074923;28;20055;-62
2023/03/25 06:12:31;;;;;;;14.40;2.03;;;8.20;99.90;;;;;;5075837;28;20048;-62
2023/03/25 06:14:58;;;;;;;2.97;0.90;;;8.20;99.90;;;;;;5075665;28;20104;-62
2023/03/25 06:17:23;;;;;;;3.47;1.48;;;8.20;99.90;;;;;;5075757;28;20086;-62
2023/03/25 06:19:50;;;;;;;6.18;1.90;;;8.30;99.90;;;;;;5075009;28;20434;-62
2023/03/25 06:22:19;;;;;;;6.22;1.42;;;8.20;99.90;;;;;;5074406;28;20033;-62
2023/03/25 06:24:46;;;;;;;9.63;1.50;;;8.20;99.90;;;;;;5075605;28;20559;-62
2023/03/25 06:27:14;;;;;;;5.40;1.38;;;8.30;99.90;;;;;;5075237;28;20396;-63
2023/03/25 06:29:42;;;;;;;5.63;1.08;;;8.30;99.90;;;;;;5075503;28;20036;-63
2023/03/25 06:32:11;;;;;;;6.03;1.85;;;8.30;99.90;;;;;;5075420;28;20048;-62
2023/03/25 06:34:38;;;;;;;9.38;2.05;;;8.30;99.90;;;;;;5075348;28;20071;-62
2023/03/25 06:37:04;;;;;;;7.03;1.15;;;8.30;99.90;;;;;;5074185;28;20491;-62
2023/03/25 06:39:30;;;;;;;2.40;1.00;;;9.00;99.90;;;;;;5075303;28;20044;-62
2023/03/25 06:42:03;;;;;;;4.07;1.58;;;8.30;99.90;;;;;;5075210;28;20473;-62
2023/03/25 06:44:29;;;;;;;5.07;1.52;;;8.20;99.90;;;;;;5075283;28;20067;-62
2023/03/25 06:46:55;;;;;;;4.03;2.15;;;8.20;99.90;;;;;;5074912;28;20040;-62
2023/03/25 06:49:20;;;;;;;4.28;1.20;;;8.20;99.90;;;;;;5075140;28;20047;-63
2023/03/25 06:51:46;;;;;;;5.15;1.38;;;8.20;99.90;;;;;;5073563;28;20049;-63
2023/03/25 06:54:12;;;;;;;5.55;1.25;;;8.20;99.90;;;;;;5074942;28;20094;-62
2023/03/25 06:56:37;;;;;;;8.23;1.90;;;8.20;99.90;;;;;;5074679;28;20087;-62
2023/03/25 06:59:04;;;;;;;7.88;1.35;;;8.20;99.90;;;;;;5075013;28;20476;-62
2023/03/25 07:01:30;;;;;;;4.35;1.48;;;8.30;99.90;;;;;;5074928;28;20472;-64
2023/03/25 07:03:55;;;;;;;4.22;1.50;;;8.20;99.90;;;;;;5074455;28;20060;-69
2023/03/25 07:06:23;;;;;;;3.72;1.00;;;8.20;99.90;;;;;;5073868;28;20041;-66
2023/03/25 07:08:49;;;;;;;4.18;1.02;;;8.30;99.90;;;;;;5073464;28;20032;-63
2023/03/25 07:11:18;;;;;;;6.32;1.20;;;8.30;99.90;;;;;;5074456;28;20069;-62
2023/03/25 07:13:44;;;;;;;6.03;1.65;;;8.30;99.90;;;;;;5074333;28;20082;-62
2023/03/25 07:16:10;;;;;;;5.22;1.60;;;8.40;99.90;;;;;;5074586;28;20041;-62
2023/03/25 07:18:36;;;;;;;5.63;1.23;;;8.40;99.90;;;;;;5074561;28;20507;-62
2023/03/25 07:21:02;;;;;;;10.18;1.38;;;8.50;99.90;;;;;;5074470;28;20090;-70
2023/03/25 07:23:27;;;;;;;4.55;1.45;;;8.60;99.90;;;;;;5072805;28;20163;-62
2023/03/25 07:25:55;;;;;;;5.10;1.10;;;8.60;99.90;;;;;;5074309;28;20392;-62
2023/03/25 07:28:22;;;;;;;2.22;0.82;;;8.70;99.90;;;;;;5074287;28;20048;-66
2023/03/25 07:30:47;;;;;;;8.52;1.17;;;9.50;99.90;;;;;;5074214;28;20033;-66
2023/03/25 07:33:13;;;;;;;4.70;1.30;;;8.80;99.90;;;;;;5071998;28;20043;-63
2023/03/25 07:35:39;;;;;;;6.90;1.25;;;8.80;99.90;;;;;;5074069;28;20059;-66
2023/03/25 07:38:05;;;;;;;6.65;1.35;;;8.90;99.90;;;;;;5072881;28;20036;-68
2023/03/25 07:40:30;;;;;;;5.32;1.20;;;8.90;99.90;;;;;;5074129;28;20033;-67
2023/03/25 07:42:56;;;;;;;6.43;1.73;;;8.90;99.90;;;;;;5073867;28;20044;-62
2023/03/25 07:45:23;;;;;;;5.80;1.60;;;9.40;99.90;;;;;;5073922;28;20448;-62
2023/03/25 07:47:49;;;;;;;5.25;1.60;;;11.50;99.90;;;;;;5073464;28;20072;-63
2023/03/25 07:50:19;;;;;;;6.03;1.40;;;8.70;99.90;;;;;;5073588;28;20036;-63
2023/03/25 07:52:45;;;;;;;7.83;1.57;;;8.60;99.90;;;;;;5073871;28;20036;-62
2023/03/25 07:55:11;;;;;;;2.70;1.00;;;8.60;99.90;;;;;;5073424;28;20093;-63
2023/03/25 07:57:39;;;;;;;4.18;1.80;;;8.50;99.90;;;;;;5073704;28;20083;-63
2023/03/25 08:00:06;;;;;;;3.95;1.70;;;8.50;99.90;;;;;;5073324;28;20048;-63
2023/03/25 08:02:31;;;;;;;8.43;1.77;;;8.40;99.90;;;;;;5073345;28;20052;-63
2023/03/25 08:04:57;;;;;;;7.93;1.38;;;8.40;99.90;;;;;;5073514;28;20186;-63
2023/03/25 08:07:22;;;;;;;2.63;0.85;;;8.50;99.90;;;;;;5073551;28;20391;-63
2023/03/25 08:09:48;;;;;;;5.57;1.20;;;8.50;99.90;;;;;;5073489;28;20032;-63
2023/03/25 08:12:14;;;;;;;2.97;0.80;;;8.50;99.90;;;;;;5073520;28;20484;-63
2023/03/25 08:14:39;;;;;;;7.68;1.65;;;8.50;99.90;;;;;;5073027;28;20118;-63
2023/03/25 08:17:05;;;;;;;9.25;1.17;;;8.60;99.90;;;;;;5073343;28;20040;-63
2023/03/25 08:19:32;;;;;;;9.10;1.30;;;8.70;99.90;;;;;;5073239;28;20109;-64
2023/03/25 08:21:57;;;;;;;3.95;0.75;;;10.10;99.90;;;;;;5055137;28;20123;-63
2023/03/25 08:24:25;;;;;;;4.50;0.77;;;8.70;99.90;;;;;;5071751;28;20068;-68
2023/03/25 08:26:53;;;;;;;3.92;1.20;;;8.70;99.90;;;;;;5071636;28;20041;-65
2023/03/25 08:29:19;;;;;;;2.40;0.82;;;8.60;99.90;;;;;;5071638;28;20090;-63
2023/03/25 08:31:45;;;;;;;10.00;1.55;;;8.50;99.90;;;;;;5073084;28;20033;-63
2023/03/25 08:34:12;;;;;;;8.30;1.73;;;8.50;99.90;;;;;;5072995;28;20036;-63
2023/03/25 08:36:40;;;;;;;7.53;1.35;;;10.90;99.90;;;;;;5073129;28;20439;-63
2023/03/25 08:39:10;;;;;;;1.67;0.90;;;8.40;99.90;;;;;;5072839;28;20043;-62
2023/03/25 08:41:37;;;;;;;5.63;0.90;;;8.50;99.90;;;;;;5072780;28;20045;-62
2023/03/25 08:44:03;;;;;;;8.70;1.30;;;8.50;99.90;;;;;;5073017;28;20085;-63
2023/03/25 08:46:29;;;;;;;4.13;1.60;;;8.60;99.90;;;;;;5073032;28;20078;-63
2023/03/25 08:48:55;;;;;;;4.43;1.20;;;8.70;99.90;;;;;;5073040;28;20123;-63
2023/03/25 08:51:21;;;;;;;3.70;1.13;;;8.80;99.90;;;;;;5071672;28;20369;-63
2023/03/25 08:53:47;;;;;;;3.30;0.90;;;8.80;99.90;;;;;;5072890;28;20082;-63
2023/03/25 08:56:13;;;;;;;4.85;1.00;;;8.80;99.90;;;;;;5072918;28;20079;-63
2023/03/25 08:58:38;;;;;;;7.13;1.00;;;11.40;99.90;;;;;;5072810;28;20040;-63
2023/03/25 09:01:05;;;;;;;5.05;1.60;;;9.00;99.90;;;;;;5072935;28;20043;-63
2023/03/25 09:03:31;;;;;;;7.28;1.10;;;9.10;99.90;;;;;;5072401;28;20412;-63
2023/03/25 09:05:57;;;;;;;2.55;1.02;;;9.20;99.90;;;;;;5072778;28;20123;-64
2023/03/25 09:08:23;;;;;;;8.80;1.88;;;9.20;99.90;;;;;;5072710;28;20120;-63
2023/03/25 09:10:49;;;;;;;2.85;0.95;;;9.30;99.90;;;;;;5072717;28;20076;-63
2023/03/25 09:13:15;;;;;;;3.22;0.98;;;9.40;99.90;;;;;;5071528;28;20508;-63
2023/03/25 09:15:42;;;;;;;6.80;1.20;;;9.60;99.90;;;;;;5072365;28;20123;-63
2023/03/25 09:18:07;;;;;;;4.85;1.60;;;9.80;99.90;;;;;;5072670;28;20091;-63
2023/03/25 09:20:33;;;;;;;10.23;1.58;;;9.70;99.90;;;;;;5071428;28;20068;-63
2023/03/25 09:22:59;;;;;;;7.10;1.38;;;9.50;99.90;;;;;;5072417;28;20102;-63
2023/03/25 09:25:24;;;;;;;9.35;1.75;;;9.50;99.90;;;;;;5072662;28;20036;-64
2023/03/25 09:27:50;;;;;;;4.20;1.17;;;10.50;99.90;;;;;;5071072;28;20046;-63
2023/03/25 09:30:15;;;;;;;5.32;1.10;;;9.60;99.90;;;;;;5072601;28;20100;-63
2023/03/25 09:32:41;;;;;;;7.03;1.35;;;9.60;99.90;;;;;;5071251;28;20048;-63
2023/03/25 09:35:07;;;;;;;2.42;0.75;;;9.50;99.90;;;;;;5072507;28;20040;-64
2023/03/25 09:37:33;;;;;;;6.50;1.63;;;9.50;99.90;;;;;;5072567;28;20074;-63
2023/03/25 09:39:58;;;;;;;3.53;1.33;;;9.50;99.90;;;;;;5070932;28;20488;-64
2023/03/25 09:42:27;;;;;;;4.85;1.15;;;9.50;99.90;;;;;;5072530;28;20067;-63
2023/03/25 09:45:16;;;;;;;7.38;0.88;;;9.60;99.90;;;;;;5072546;28;20051;-63
2023/03/25 09:48:09;;;;;;;2.60;1.10;;;9.80;99.90;;;;;;5072498;28;20192;-63
2023/03/25 09:50:36;;;;;;;5.57;0.73;;;9.80;99.90;;;;;;5043504;28;20143;-63
2023/03/25 09:53:13;;;;;;;5.20;1.02;;;9.80;99.90;;;;;;5070755;28;20045;-63
2023/03/25 09:55:42;;;;;;;9.23;1.50;;;9.90;99.90;;;;;;5072787;28;20043;-63
2023/03/25 09:58:20;;;;;;;4.03;1.48;;;10.00;99.90;;;;;;5074718;28;20041;-63
2023/03/25 10:00:55;;;;;;;5.20;1.48;;;10.00;99.90;;;;;;5076010;28;20040;-63
2023/03/25 10:03:29;;;;;;;4.53;0.77;;;9.90;99.90;;;;;;5057618;28;20079;-63
2023/03/25 10:06:18;;;;;;;4.85;0.77;;;9.60;99.90;;;;;;5074412;28;20113;-63
2023/03/25 10:09:32;;;;;;;6.63;1.17;;;9.50;99.90;;;;;;5075863;28;20048;-63
2023/03/25 10:12:08;;;;;;;2.08;0.63;;;9.60;99.90;;;;;;5061265;28;20063;-64
2023/03/25 10:15:01;;;;;;;5.05;1.02;;;9.50;99.90;;;;;;5075404;28;20051;-64
2023/03/25 10:17:58;;;;;;;1.98;0.90;;;9.60;99.90;;;;;;5075740;28;20492;-65
2023/03/25 10:20:59;;;;;;;7.15;0.98;;;9.70;99.90;;;;;;5075658;28;20048;-63
2023/03/25 10:23:38;;;;;;;5.50;1.63;;;9.80;99.90;;;;;;5075405;28;20041;-64
2023/03/25 10:26:33;;;;;;;8.73;1.30;;;10.70;99.90;;;;;;5075576;28;20040;-63
2023/03/25 10:29:03;;;;;;;8.35;1.48;;;10.30;99.90;;;;;;5043952;28;20058;-63
2023/03/25 10:31:35;;;;;;;2.90;1.35;;;9.80;99.90;;;;;;5075516;28;20043;-63
2023/03/25 10:34:10;;;;;;;3.85;1.13;;;9.70;99.90;;;;;;5075462;28;20044;-63
2023/03/25 10:36:43;;;;;;;2.17;1.30;;;9.70;99.90;;;;;;5075383;28;20032;-63
2023/03/25 10:39:19;;;;;;;4.95;1.52;;;9.70;99.90;;;;;;5075346;28;20041;-63
2023/03/25 10:41:59;;;;;;;5.38;0.98;;;9.70;99.90;;;;;;5075233;28;20040;-63
2023/03/25 10:44:26;;;;;;;5.15;1.00;;;9.80;99.90;;;;;;5075076;28;20039;-63
2023/03/25 10:47:05;;;;;;;4.30;1.13;;;9.10;99.90;;;;;;5073663;28;20131;-64
2023/03/25 10:49:32;;;;;;;4.53;0.75;;;9.80;99.90;;;;;;5075212;28;20125;-63
2023/03/25 10:51:58;;;;;;;4.50;1.13;;;9.80;99.90;;;;;;5075023;28;20049;-63
2023/03/25 10:54:31;;;;;;;3.38;1.10;;;9.90;99.90;;;;;;5074808;28;20507;-63
2023/03/25 10:57:05;;;;;;;8.25;0.77;;;10.60;99.90;;;;;;5073420;28;20044;-63
2023/03/25 10:59:49;;;;;;;4.47;1.00;;;9.90;99.90;;;;;;5075324;28;20041;-63
2023/03/25 11:02:21;;;;;;;7.45;1.33;;;10.00;99.90;;;;;;5074681;28;20055;-63
2023/03/25 11:04:51;;;;;;;3.80;1.58;;;10.10;99.90;;;;;;5073471;28;20131;-63
2023/03/25 11:07:29;;;;;;;5.38;1.38;;;10.10;99.90;;;;;;5072081;28;20048;-63
2023/03/25 11:10:19;;;;;;;3.60;1.00;;;10.10;99.90;;;;;;5074486;28;20047;-63
2023/03/25 11:12:46;;;;;;;2.55;0.90;;;10.20;99.90;;;;;;5074719;28;20381;-63
2023/03/25 11:15:22;;;;;;;14.30;1.92;;;10.20;99.90;;;;;;5073068;28;20047;-63
2023/03/25 11:18:08;;;;;;;14.48;1.60;;;10.20;99.90;;;;;;5074597;28;20048;-63
2023/03/25 11:20:39;;;;;;;3.60;1.13;;;10.30;99.90;;;;;;5074292;28;20043;-63
2023/03/25 11:23:14;;;;;;;8.05;1.67;;;10.20;99.90;;;;;;5074582;28;20498;-63
2023/03/25 11:25:40;;;;;;;9.02;1.90;;;10.20;99.90;;;;;;5074431;28;20105;-63
2023/03/25 11:28:43;;;;;;;4.32;0.63;;;11.30;99.90;;;;;;5073252;28;20392;-63
2023/03/25 11:31:19;;;;;;;7.07;1.45;;;10.30;99.90;;;;;;5064146;28;20492;-63
2023/03/25 11:34:02;;;;;;;5.40;1.10;;;10.40;99.90;;;;;;5074366;28;20094;-63
2023/03/25 11:36:30;;;;;;;5.85;1.27;;;10.40;99.90;;;;;;5074201;28;20038;-64
2023/03/25 11:38:59;;;;;;;3.63;1.30;;;10.40;99.90;;;;;;5074193;28;20624;-64
2023/03/25 11:41:29;;;;;;;11.23;1.35;;;10.50;99.90;;;;;;5073885;28;20063;-63
2023/03/25 11:43:56;;;;;;;7.72;1.45;;;10.50;99.90;;;;;;5056369;28;20036;-64
2023/03/25 11:46:22;;;;;;;4.60;1.15;;;10.60;99.90;;;;;;5073784;28;20047;-64
2023/03/25 11:48:51;;;;;;;5.00;1.42;;;10.60;99.90;;;;;;5055794;28;20052;-64
2023/03/25 11:51:31;;;;;;;4.07;1.30;;;10.60;99.90;;;;;;5074037;28;20068;-64
2023/03/25 11:54:00;;;;;;;6.05;1.75;;;10.70;99.90;;;;;;5073931;28;20048;-64
2023/03/25 11:56:38;;;;;;;5.20;1.58;;;10.70;99.90;;;;;;5073824;28;20033;-64
2023/03/25 11:59:32;;;;;;;4.68;0.95;;;10.70;99.90;;;;;;5073527;28;20126;-64
2023/03/25 12:02:21;;;;;;;4.47;1.30;;;10.60;99.90;;;;;;5073616;28;20043;-64
2023/03/25 12:05:17;;;;;;;4.60;1.20;;;10.50;99.90;;;;;;5073570;28;20051;-64
2023/03/25 12:07:44;;;;;;;5.68;1.00;;;10.40;99.90;;;;;;5060064;28;20052;-64
2023/03/25 12:10:22;;;;;;;10.05;1.77;;;10.60;99.90;;;;;;5073441;28;20396;-63
2023/03/25 12:13:21;;;;;;;9.02;0.98;;;10.40;99.90;;;;;;5073036;28;20036;-64
2023/03/25 12:16:02;;;;;;;20.27;1.60;;;10.40;99.90;;;;;;5073250;28;20373;-63
2023/03/25 12:18:56;;;;;;;1.35;0.85;;;10.40;99.90;;;;;;5073063;28;20447;-67
2023/03/25 12:21:30;;;;;;;2.25;0.73;;;10.60;99.90;;;;;;5073317;28;20041;-64
2023/03/25 12:24:15;;;;;;;5.97;1.08;;;10.70;99.90;;;;;;5073281;28;20222;-64
2023/03/25 12:26:50;;;;;;;4.95;1.75;;;10.80;99.90;;;;;;5072845;28;20040;-64
2023/03/25 12:29:45;;;;;;;5.72;1.13;;;10.90;99.90;;;;;;5073155;28;20051;-63
2023/03/25 12:32:14;;;;;;;5.05;0.80;;;11.20;99.90;;;;;;5073104;28;20492;-64
2023/03/25 12:34:55;;;;;;;5.60;0.85;;;11.30;99.90;;;;;;5071700;28;20044;-64
2023/03/25 12:37:43;;;;;;;3.42;0.80;;;11.50;99.90;;;;;;5072723;28;20135;-64
2023/03/25 12:40:52;;;;;;;2.05;0.93;;;11.90;99.90;;;;;;5073072;28;20507;-64
2023/03/25 12:43:30;;;;;;;3.60;0.73;;;12.30;99.90;;;;;;5050593;28;20136;-64
2023/03/25 12:46:01;;;;;;;12.10;1.23;;;12.10;99.90;;;;;;5072948;28;20045;-64
2023/03/25 12:49:05;;;;;;;3.00;1.00;;;12.20;99.90;;;;;;5072912;28;20047;-63
2023/03/25 12:51:46;;;;;;;11.68;1.05;;;12.20;99.90;;;;;;5071995;28;20051;-64
2023/03/25 12:54:49;;;;;;;6.93;1.38;;;12.20;59.00;;;;;;5072965;28;20044;-64
2023/03/25 12:57:24;;;;;;;6.55;1.08;;;12.20;91.70;;;;;;5071556;28;20052;-64
2023/03/25 13:00:20;;;;;;;5.20;1.00;;;13.20;49.60;;;;;;5072717;28;20381;-64
2023/03/25 13:03:13;;;;;;;4.22;1.08;;;11.70;24.70;;;;;;5072320;28;20181;-65
2023/03/25 13:06:00;;;;;;;2.60;1.05;;;11.60;48.00;;;;;;5072629;28;20093;-64
2023/03/25 13:08:39;;;;;;;3.65;1.48;;;11.80;26.50;;;;;;5072603;28;20125;-64
2023/03/25 13:11:11;;;;;;;4.35;1.30;;;11.70;12.60;;;;;;5072600;28;20040;-66
2023/03/25 13:13:38;;;;;;;1.80;0.70;;;12.60;17.30;;;;;;5072509;28;20040;-67
2023/03/25 13:16:16;;;;;;;2.17;0.82;;;12.30;17.30;;;;;;5054324;28;20052;-64
2023/03/25 13:18:47;;;;;;;3.25;0.93;;;13.50;1.00;;;;;;5072590;28;20504;-66
2023/03/25 13:21:45;;;;;;;8.48;1.10;;;12.30;1.00;;;;;;5054557;28;20048;-65